sensor_id;sensor_type;location;lat;lon;timestamp;pressure;altitude;pressure_sealevel;temperature;humidity
60015;BME280;45867;52.480;6.056;2022-10-16T00:00:41;100937.16;;;12.27;100.00
60015;BME280;45867;52.480;6.056;2022-10-16T00:03:08;100920.44;;;12.26;100.00
60015;BME280;45867;52.480;6.056;2022-10-16T00:05:40;100928.06;;;12.33;100.00
60015;BME280;45867;52.480;6.056;2022-10-16T00:08:06;100916.25;;;12.15;100.00
60015;BME280;45867;52.480;6.056;2022-10-16T00:10:34;100931.88;;;12.21;100.00
60015;BME280;45867;52.480;6.056;2022-10-16T00:12:59;100923.16;;;12.11;100.00
60015;BME280;45867;52.480;6.056;2022-10-16T00:15:26;100934.84;;;12.15;100.00
60015;BME280;45867;52.480;6.056;2022-10-16T00:17:51;100933.53;;;12.07;100.00
60015;BME280;45867;52.480;6.056;2022-10-16T00:20:17;100918.94;;;12.05;100.00
60015;BME280;45867;52.480;6.056;2022-10-16T00:22:42;100924.81;;;12.02;100.00
60015;BME280;45867;52.480;6.056;2022-10-16T00:25:08;100924.28;;;11.99;100.00
60015;BME280;45867;52.480;6.056;2022-10-16T00:27:34;100911.84;;;11.90;100.00
60015;BME280;45867;52.480;6.056;2022-10-16T00:29:59;100916.63;;;11.83;100.00
60015;BME280;45867;52.480;6.056;2022-10-16T00:32:25;100924.59;;;11.83;100.00
60015;BME280;45867;52.480;6.056;2022-10-16T00:34:50;100946.88;;;11.92;100.00
60015;BME280;45867;52.480;6.056;2022-10-16T00:37:16;100936.00;;;11.93;100.00
60015;BME280;45867;52.480;6.056;2022-10-16T00:39:41;100930.13;;;12.02;100.00
60015;BME280;45867;52.480;6.056;2022-10-16T00:42:14;100919.22;;;12.03;100.00
60015;BME280;45867;52.480;6.056;2022-10-16T00:44:53;100930.09;;;12.07;100.00
60015;BME280;45867;52.480;6.056;2022-10-16T00:47:42;100934.09;;;12.04;100.00
60015;BME280;45867;52.480;6.056;2022-10-16T00:52:47;100934.66;;;11.96;100.00
60015;BME280;45867;52.480;6.056;2022-10-16T00:55:14;100923.72;;;12.03;100.00
60015;BME280;45867;52.480;6.056;2022-10-16T00:57:41;100920.81;;;11.99;100.00
60015;BME280;45867;52.480;6.056;2022-10-16T01:00:10;100936.53;;;11.95;100.00
60015;BME280;45867;52.480;6.056;2022-10-16T01:02:36;100927.75;;;11.95;100.00
60015;BME280;45867;52.480;6.056;2022-10-16T01:05:02;100933.06;;;11.95;100.00
60015;BME280;45867;52.480;6.056;2022-10-16T01:07:41;100939.16;;;12.01;100.00
60015;BME280;45867;52.480;6.056;2022-10-16T01:13:01;100928.75;;;12.09;100.00
60015;BME280;45867;52.480;6.056;2022-10-16T01:15:59;100925.53;;;12.12;100.00
60015;BME280;45867;52.480;6.056;2022-10-16T01:18:44;100923.16;;;12.06;100.00
60015;BME280;45867;52.480;6.056;2022-10-16T01:21:24;100922.34;;;12.15;100.00
60015;BME280;45867;52.480;6.056;2022-10-16T01:24:38;100927.09;;;12.18;100.00
60015;BME280;45867;52.480;6.056;2022-10-16T01:27:12;100924.16;;;12.25;100.00
60015;BME280;45867;52.480;6.056;2022-10-16T01:29:48;100930.50;;;12.29;100.00
60015;BME280;45867;52.480;6.056;2022-10-16T01:32:22;100929.41;;;12.35;100.00
60015;BME280;45867;52.480;6.056;2022-10-16T01:34:56;100912.09;;;12.38;100.00
60015;BME280;45867;52.480;6.056;2022-10-16T01:37:39;100923.28;;;12.35;100.00
60015;BME280;45867;52.480;6.056;2022-10-16T01:40:10;100924.09;;;12.30;100.00
60015;BME280;45867;52.480;6.056;2022-10-16T01:42:47;100927.03;;;12.34;100.00
60015;BME280;45867;52.480;6.056;2022-10-16T01:45:17;100934.16;;;12.38;100.00
60015;BME280;45867;52.480;6.056;2022-10-16T01:47:44;100919.06;;;12.34;100.00
60015;BME280;45867;52.480;6.056;2022-10-16T01:50:12;100929.13;;;12.37;100.00
60015;BME280;45867;52.480;6.056;2022-10-16T01:52:43;100930.44;;;12.39;100.00
60015;BME280;45867;52.480;6.056;2022-10-16T01:55:12;100927.00;;;12.39;100.00
60015;BME280;45867;52.480;6.056;2022-10-16T01:57:43;100917.75;;;12.31;100.00
60015;BME280;45867;52.480;6.056;2022-10-16T02:00:12;100919.00;;;12.44;100.00
60015;BME280;45867;52.480;6.056;2022-10-16T02:02:41;100916.56;;;12.48;100.00
60015;BME280;45867;52.480;6.056;2022-10-16T02:05:26;100919.47;;;12.51;100.00
60015;BME280;45867;52.480;6.056;2022-10-16T02:07:52;100924.03;;;12.46;100.00
60015;BME280;45867;52.480;6.056;2022-10-16T02:10:18;100933.03;;;12.50;100.00
60015;BME280;45867;52.480;6.056;2022-10-16T02:12:50;100919.66;;;12.60;100.00
60015;BME280;45867;52.480;6.056;2022-10-16T02:15:18;100916.25;;;12.54;100.00
60015;BME280;45867;52.480;6.056;2022-10-16T02:17:44;100902.97;;;12.54;100.00
60015;BME280;45867;52.480;6.056;2022-10-16T02:20:32;100898.72;;;12.53;100.00
60015;BME280;45867;52.480;6.056;2022-10-16T02:23:07;100910.34;;;12.62;100.00
60015;BME280;45867;52.480;6.056;2022-10-16T02:25:40;100908.78;;;12.61;100.00
60015;BME280;45867;52.480;6.056;2022-10-16T02:28:16;100906.88;;;12.67;100.00
60015;BME280;45867;52.480;6.056;2022-10-16T02:30:47;100911.94;;;12.63;100.00
60015;BME280;45867;52.480;6.056;2022-10-16T02:33:15;100921.16;;;12.71;100.00
60015;BME280;45867;52.480;6.056;2022-10-16T02:35:43;100930.72;;;12.77;100.00
60015;BME280;45867;52.480;6.056;2022-10-16T02:38:10;100920.34;;;12.76;100.00
60015;BME280;45867;52.480;6.056;2022-10-16T02:40:36;100908.94;;;12.75;100.00
60015;BME280;45867;52.480;6.056;2022-10-16T02:43:04;100915.56;;;12.78;100.00
60015;BME280;45867;52.480;6.056;2022-10-16T02:45:29;100916.06;;;12.80;100.00
60015;BME280;45867;52.480;6.056;2022-10-16T02:47:55;100916.13;;;12.75;100.00
60015;BME280;45867;52.480;6.056;2022-10-16T02:50:21;100920.31;;;12.81;100.00
60015;BME280;45867;52.480;6.056;2022-10-16T02:52:46;100921.44;;;12.75;100.00
60015;BME280;45867;52.480;6.056;2022-10-16T02:55:11;100922.22;;;12.75;100.00
60015;BME280;45867;52.480;6.056;2022-10-16T02:57:37;100931.28;;;12.74;100.00
60015;BME280;45867;52.480;6.056;2022-10-16T03:00:08;100927.56;;;12.70;100.00
60015;BME280;45867;52.480;6.056;2022-10-16T03:02:34;100949.06;;;12.74;100.00
60015;BME280;45867;52.480;6.056;2022-10-16T03:05:00;100954.41;;;12.74;100.00
60015;BME280;45867;52.480;6.056;2022-10-16T03:07:25;100953.63;;;12.68;100.00
60015;BME280;45867;52.480;6.056;2022-10-16T03:09:51;100962.44;;;12.69;100.00
60015;BME280;45867;52.480;6.056;2022-10-16T03:12:16;100958.72;;;12.64;100.00
60015;BME280;45867;52.480;6.056;2022-10-16T03:14:42;100949.72;;;12.60;100.00
60015;BME280;45867;52.480;6.056;2022-10-16T03:17:07;100970.47;;;12.58;100.00
60015;BME280;45867;52.480;6.056;2022-10-16T03:19:32;100967.81;;;12.58;100.00
60015;BME280;45867;52.480;6.056;2022-10-16T03:21:58;100965.97;;;12.54;100.00
60015;BME280;45867;52.480;6.056;2022-10-16T03:24:23;100967.84;;;12.53;100.00
60015;BME280;45867;52.480;6.056;2022-10-16T03:26:48;100993.06;;;12.56;100.00
60015;BME280;45867;52.480;6.056;2022-10-16T03:29:14;100969.41;;;12.54;100.00
60015;BME280;45867;52.480;6.056;2022-10-16T03:31:40;100967.03;;;12.53;100.00
60015;BME280;45867;52.480;6.056;2022-10-16T03:34:05;100961.47;;;12.49;100.00
60015;BME280;45867;52.480;6.056;2022-10-16T03:36:31;100951.69;;;12.44;100.00
60015;BME280;45867;52.480;6.056;2022-10-16T03:38:56;100957.03;;;12.39;100.00
60015;BME280;45867;52.480;6.056;2022-10-16T03:41:21;100959.19;;;12.32;100.00
60015;BME280;45867;52.480;6.056;2022-10-16T03:43:47;100967.69;;;12.29;100.00
60015;BME280;45867;52.480;6.056;2022-10-16T03:46:12;100970.66;;;12.28;100.00
60015;BME280;45867;52.480;6.056;2022-10-16T03:48:37;100971.22;;;12.19;100.00
60015;BME280;45867;52.480;6.056;2022-10-16T03:51:03;100980.22;;;12.18;100.00
60015;BME280;45867;52.480;6.056;2022-10-16T03:53:28;100964.59;;;12.12;100.00
60015;BME280;45867;52.480;6.056;2022-10-16T03:55:53;100968.81;;;12.18;100.00
60015;BME280;45867;52.480;6.056;2022-10-16T03:58:19;100969.09;;;12.16;100.00
60015;BME280;45867;52.480;6.056;2022-10-16T04:00:45;100979.22;;;12.14;100.00
60015;BME280;45867;52.480;6.056;2022-10-16T04:03:11;100982.41;;;12.11;100.00
60015;BME280;45867;52.480;6.056;2022-10-16T04:05:37;100992.22;;;12.06;100.00
60015;BME280;45867;52.480;6.056;2022-10-16T04:08:03;100998.63;;;12.05;100.00
60015;BME280;45867;52.480;6.056;2022-10-16T04:10:28;100995.44;;;11.97;100.00
60015;BME280;45867;52.480;6.056;2022-10-16T04:12:54;100987.75;;;12.01;100.00
60015;BME280;45867;52.480;6.056;2022-10-16T04:15:21;101002.06;;;12.05;100.00
60015;BME280;45867;52.480;6.056;2022-10-16T04:17:47;101007.13;;;12.07;100.00
60015;BME280;45867;52.480;6.056;2022-10-16T04:20:12;100994.66;;;12.02;100.00
60015;BME280;45867;52.480;6.056;2022-10-16T04:22:38;101005.28;;;12.02;100.00
60015;BME280;45867;52.480;6.056;2022-10-16T04:25:04;101006.34;;;12.06;100.00
60015;BME280;45867;52.480;6.056;2022-10-16T04:27:30;101009.78;;;12.02;100.00
60015;BME280;45867;52.480;6.056;2022-10-16T04:29:57;101014.53;;;12.15;100.00
60015;BME280;45867;52.480;6.056;2022-10-16T04:32:23;101024.91;;;12.11;100.00
60015;BME280;45867;52.480;6.056;2022-10-16T04:34:48;101014.03;;;12.03;100.00
60015;BME280;45867;52.480;6.056;2022-10-16T04:37:13;101035.56;;;12.06;100.00
60015;BME280;45867;52.480;6.056;2022-10-16T04:39:39;101022.81;;;11.98;100.00
60015;BME280;45867;52.480;6.056;2022-10-16T04:42:04;101036.06;;;12.08;100.00
60015;BME280;45867;52.480;6.056;2022-10-16T04:44:30;101032.63;;;11.97;100.00
60015;BME280;45867;52.480;6.056;2022-10-16T04:46:55;101037.16;;;11.97;100.00
60015;BME280;45867;52.480;6.056;2022-10-16T04:49:20;101046.97;;;11.96;100.00
60015;BME280;45867;52.480;6.056;2022-10-16T04:51:46;101054.44;;;11.89;100.00
60015;BME280;45867;52.480;6.056;2022-10-16T04:54:11;101059.75;;;11.84;100.00
60015;BME280;45867;52.480;6.056;2022-10-16T04:56:36;101061.06;;;11.82;100.00
60015;BME280;45867;52.480;6.056;2022-10-16T04:59:09;101057.09;;;11.79;100.00
60015;BME280;45867;52.480;6.056;2022-10-16T05:01:34;101067.72;;;11.84;100.00
60015;BME280;45867;52.480;6.056;2022-10-16T05:04:00;101054.69;;;11.83;100.00
60015;BME280;45867;52.480;6.056;2022-10-16T05:06:25;101049.38;;;11.77;100.00
60015;BME280;45867;52.480;6.056;2022-10-16T05:08:50;101063.47;;;11.88;100.00
60015;BME280;45867;52.480;6.056;2022-10-16T05:11:16;101065.06;;;11.84;100.00
60015;BME280;45867;52.480;6.056;2022-10-16T05:13:41;101068.00;;;11.88;100.00
60015;BME280;45867;52.480;6.056;2022-10-16T05:16:07;101060.78;;;11.78;100.00
60015;BME280;45867;52.480;6.056;2022-10-16T05:18:32;101074.88;;;11.94;100.00
60015;BME280;45867;52.480;6.056;2022-10-16T05:20:57;101075.66;;;11.94;100.00
60015;BME280;45867;52.480;6.056;2022-10-16T05:23:23;101077.28;;;11.95;100.00
60015;BME280;45867;52.480;6.056;2022-10-16T05:25:55;101091.06;;;11.97;100.00
60015;BME280;45867;52.480;6.056;2022-10-16T05:28:24;101081.75;;;12.00;100.00
60015;BME280;45867;52.480;6.056;2022-10-16T05:30:50;101093.47;;;11.94;100.00
60015;BME280;45867;52.480;6.056;2022-10-16T05:33:15;101090.28;;;11.92;100.00
60015;BME280;45867;52.480;6.056;2022-10-16T05:35:40;101091.09;;;11.87;100.00
60015;BME280;45867;52.480;6.056;2022-10-16T05:38:06;101095.06;;;11.95;100.00
60015;BME280;45867;52.480;6.056;2022-10-16T05:40:31;101092.44;;;11.90;100.00
60015;BME280;45867;52.480;6.056;2022-10-16T05:42:57;101088.69;;;11.91;100.00
60015;BME280;45867;52.480;6.056;2022-10-16T05:45:22;101087.38;;;11.88;100.00
60015;BME280;45867;52.480;6.056;2022-10-16T05:47:48;101098.78;;;11.94;100.00
60015;BME280;45867;52.480;6.056;2022-10-16T05:50:13;101099.31;;;11.96;100.00
60015;BME280;45867;52.480;6.056;2022-10-16T05:52:39;101105.16;;;11.98;100.00
60015;BME280;45867;52.480;6.056;2022-10-16T05:55:05;101116.81;;;12.02;100.00
60015;BME280;45867;52.480;6.056;2022-10-16T05:57:30;101105.16;;;11.98;100.00
60015;BME280;45867;52.480;6.056;2022-10-16T05:59:56;101114.69;;;12.04;100.00
60015;BME280;45867;52.480;6.056;2022-10-16T06:02:27;101116.03;;;12.02;100.00
60015;BME280;45867;52.480;6.056;2022-10-16T06:04:53;101126.41;;;12.03;100.00
60015;BME280;45867;52.480;6.056;2022-10-16T06:07:19;101130.91;;;12.03;100.00
60015;BME280;45867;52.480;6.056;2022-10-16T06:09:48;101139.41;;;12.05;100.00
60015;BME280;45867;52.480;6.056;2022-10-16T06:12:13;101129.84;;;11.98;100.00
60015;BME280;45867;52.480;6.056;2022-10-16T06:14:39;101136.22;;;12.03;100.00
60015;BME280;45867;52.480;6.056;2022-10-16T06:17:04;101145.53;;;11.95;100.00
60015;BME280;45867;52.480;6.056;2022-10-16T06:19:30;101134.38;;;11.93;100.00
60015;BME280;45867;52.480;6.056;2022-10-16T06:21:56;101149.78;;;11.96;100.00
60015;BME280;45867;52.480;6.056;2022-10-16T06:24:25;101160.66;;;11.99;100.00
60015;BME280;45867;52.480;6.056;2022-10-16T06:26:51;101147.91;;;12.02;100.00
60015;BME280;45867;52.480;6.056;2022-10-16T06:29:16;101158.00;;;12.05;100.00
60015;BME280;45867;52.480;6.056;2022-10-16T06:31:41;101164.63;;;12.12;100.00
60015;BME280;45867;52.480;6.056;2022-10-16T06:34:10;101164.34;;;12.14;100.00
60015;BME280;45867;52.480;6.056;2022-10-16T06:36:37;101173.13;;;12.19;100.00
60015;BME280;45867;52.480;6.056;2022-10-16T06:39:03;101165.66;;;12.16;100.00
60015;BME280;45867;52.480;6.056;2022-10-16T06:41:29;101180.56;;;12.28;100.00
60015;BME280;45867;52.480;6.056;2022-10-16T06:43:55;101177.91;;;12.28;100.00
60015;BME280;45867;52.480;6.056;2022-10-16T06:46:22;101197.00;;;12.35;100.00
60015;BME280;45867;52.480;6.056;2022-10-16T06:48:48;101190.66;;;12.36;100.00
60015;BME280;45867;52.480;6.056;2022-10-16T06:51:21;101210.81;;;12.42;100.00
60015;BME280;45867;52.480;6.056;2022-10-16T06:53:49;101211.63;;;12.48;100.00
60015;BME280;45867;52.480;6.056;2022-10-16T06:56:21;101221.44;;;12.52;100.00
60015;BME280;45867;52.480;6.056;2022-10-16T06:58:47;101217.19;;;12.46;100.00
60015;BME280;45867;52.480;6.056;2022-10-16T07:01:14;101224.34;;;12.51;100.00
60015;BME280;45867;52.480;6.056;2022-10-16T07:03:41;101251.75;;;12.46;100.00
60015;BME280;45867;52.480;6.056;2022-10-16T07:06:11;101243.50;;;12.42;100.00
60015;BME280;45867;52.480;6.056;2022-10-16T07:08:39;101224.41;;;12.20;100.00
60015;BME280;45867;52.480;6.056;2022-10-16T07:11:09;101230.75;;;12.19;100.00
60015;BME280;45867;52.480;6.056;2022-10-16T07:13:39;101235.81;;;12.05;100.00
60015;BME280;45867;52.480;6.056;2022-10-16T07:16:10;101232.13;;;12.06;100.00
60015;BME280;45867;52.480;6.056;2022-10-16T07:18:37;101219.63;;;12.02;100.00
60015;BME280;45867;52.480;6.056;2022-10-16T07:21:06;101227.84;;;12.00;100.00
60015;BME280;45867;52.480;6.056;2022-10-16T07:23:32;101238.75;;;12.09;100.00
60015;BME280;45867;52.480;6.056;2022-10-16T07:25:57;101234.78;;;12.11;100.00
60015;BME280;45867;52.480;6.056;2022-10-16T07:28:23;101239.56;;;12.14;100.00
60015;BME280;45867;52.480;6.056;2022-10-16T07:30:48;101237.44;;;12.11;100.00
60015;BME280;45867;52.480;6.056;2022-10-16T07:33:14;101251.47;;;12.22;100.00
60015;BME280;45867;52.480;6.056;2022-10-16T07:35:53;101263.44;;;12.30;100.00
60015;BME280;45867;52.480;6.056;2022-10-16T07:38:20;101267.72;;;12.26;100.00
60015;BME280;45867;52.480;6.056;2022-10-16T07:40:45;101267.97;;;12.34;100.00
60015;BME280;45867;52.480;6.056;2022-10-16T07:43:11;101274.88;;;12.40;100.00
60015;BME280;45867;52.480;6.056;2022-10-16T07:45:40;101287.09;;;12.52;100.00
60015;BME280;45867;52.480;6.056;2022-10-16T07:48:11;101272.22;;;12.51;100.00
60015;BME280;45867;52.480;6.056;2022-10-16T07:50:36;101275.91;;;12.65;100.00
60015;BME280;45867;52.480;6.056;2022-10-16T07:53:01;101280.19;;;12.66;100.00
60015;BME280;45867;52.480;6.056;2022-10-16T07:55:27;101288.13;;;12.71;100.00
60015;BME280;45867;52.480;6.056;2022-10-16T07:57:52;101302.47;;;12.80;100.00
60015;BME280;45867;52.480;6.056;2022-10-16T08:00:18;101300.34;;;12.82;100.00
60015;BME280;45867;52.480;6.056;2022-10-16T08:02:43;101297.16;;;12.85;100.00
60015;BME280;45867;52.480;6.056;2022-10-16T08:05:08;101315.22;;;12.99;100.00
60015;BME280;45867;52.480;6.056;2022-10-16T08:07:34;101315.47;;;13.02;100.00
60015;BME280;45867;52.480;6.056;2022-10-16T08:09:59;101329.28;;;13.09;100.00
60015;BME280;45867;52.480;6.056;2022-10-16T08:12:25;101310.38;;;13.06;100.00
60015;BME280;45867;52.480;6.056;2022-10-16T08:14:51;101318.38;;;13.06;100.00
60015;BME280;45867;52.480;6.056;2022-10-16T08:17:16;101325.00;;;13.19;100.00
60015;BME280;45867;52.480;6.056;2022-10-16T08:19:46;101330.59;;;13.27;100.00
60015;BME280;45867;52.480;6.056;2022-10-16T08:22:12;101327.38;;;13.20;100.00
60015;BME280;45867;52.480;6.056;2022-10-16T08:24:38;101325.56;;;13.10;100.00
60015;BME280;45867;52.480;6.056;2022-10-16T08:27:03;101336.72;;;13.18;100.00
60015;BME280;45867;52.480;6.056;2022-10-16T08:29:29;101343.09;;;13.11;100.00
60015;BME280;45867;52.480;6.056;2022-10-16T08:31:54;101343.66;;;13.08;100.00
60015;BME280;45867;52.480;6.056;2022-10-16T08:34:20;101349.75;;;13.04;100.00
60015;BME280;45867;52.480;6.056;2022-10-16T08:36:45;101349.50;;;13.05;100.00
60015;BME280;45867;52.480;6.056;2022-10-16T08:39:10;101358.28;;;13.11;100.00
60015;BME280;45867;52.480;6.056;2022-10-16T08:44:39;101371.81;;;13.20;100.00
60015;BME280;45867;52.480;6.056;2022-10-16T08:47:19;101367.03;;;13.22;100.00
60015;BME280;45867;52.480;6.056;2022-10-16T08:49:57;101374.25;;;13.26;100.00
60015;BME280;45867;52.480;6.056;2022-10-16T08:52:25;101373.16;;;13.32;100.00
60015;BME280;45867;52.480;6.056;2022-10-16T08:54:56;101362.50;;;13.38;100.00
60015;BME280;45867;52.480;6.056;2022-10-16T08:57:24;101360.38;;;13.40;100.00
60015;BME280;45867;52.480;6.056;2022-10-16T08:59:51;101373.38;;;13.51;100.00
60015;BME280;45867;52.480;6.056;2022-10-16T09:02:59;101376.00;;;13.62;100.00
60015;BME280;45867;52.480;6.056;2022-10-16T09:08:46;101400.72;;;13.72;100.00
60015;BME280;45867;52.480;6.056;2022-10-16T09:14:40;101411.81;;;13.90;100.00
60015;BME280;45867;52.480;6.056;2022-10-16T09:16:56;101401.38;;;13.98;100.00
60015;BME280;45867;52.480;6.056;2022-10-16T09:19:31;101426.88;;;14.15;100.00
60015;BME280;45867;52.480;6.056;2022-10-16T09:22:04;101423.09;;;14.21;100.00
60015;BME280;45867;52.480;6.056;2022-10-16T09:24:34;101428.72;;;14.25;100.00
60015;BME280;45867;52.480;6.056;2022-10-16T09:26:59;101426.28;;;14.28;100.00
60015;BME280;45867;52.480;6.056;2022-10-16T09:29:25;101419.56;;;14.36;100.00
60015;BME280;45867;52.480;6.056;2022-10-16T09:31:51;101434.06;;;14.64;100.00
60015;BME280;45867;52.480;6.056;2022-10-16T09:34:32;101429.78;;;14.68;100.00
60015;BME280;45867;52.480;6.056;2022-10-16T09:37:00;101427.06;;;14.73;100.00
60015;BME280;45867;52.480;6.056;2022-10-16T09:39:28;101428.97;;;14.68;100.00
60015;BME280;45867;52.480;6.056;2022-10-16T09:41:55;101434.97;;;14.83;100.00
60015;BME280;45867;52.480;6.056;2022-10-16T09:44:27;101446.66;;;14.93;100.00
60015;BME280;45867;52.480;6.056;2022-10-16T09:47:03;101437.75;;;15.02;100.00
60015;BME280;45867;52.480;6.056;2022-10-16T09:49:29;101444.31;;;15.15;100.00
60015;BME280;45867;52.480;6.056;2022-10-16T09:52:24;101447.78;;;15.16;100.00
60015;BME280;45867;52.480;6.056;2022-10-16T09:54:58;101454.69;;;15.17;100.00
60015;BME280;45867;52.480;6.056;2022-10-16T09:57:24;101441.09;;;15.18;100.00
60015;BME280;45867;52.480;6.056;2022-10-16T09:59:54;101460.19;;;15.30;100.00
60015;BME280;45867;52.480;6.056;2022-10-16T10:02:30;101457.19;;;15.37;100.00
60015;BME280;45867;52.480;6.056;2022-10-16T10:04:56;101452.41;;;15.34;100.00
60015;BME280;45867;52.480;6.056;2022-10-16T10:07:33;101449.84;;;15.77;100.00
60015;BME280;45867;52.480;6.056;2022-10-16T10:10:03;101443.69;;;17.23;100.00
60015;BME280;45867;52.480;6.056;2022-10-16T10:12:30;101450.09;;;17.82;100.00
60015;BME280;45867;52.480;6.056;2022-10-16T10:15:12;101453.44;;;17.46;100.00
60015;BME280;45867;52.480;6.056;2022-10-16T10:17:52;101460.22;;;16.59;100.00
60015;BME280;45867;52.480;6.056;2022-10-16T10:20:24;101473.41;;;16.37;100.00
60015;BME280;45867;52.480;6.056;2022-10-16T10:22:50;101476.41;;;16.11;100.00
60015;BME280;45867;52.480;6.056;2022-10-16T10:25:25;101476.16;;;16.51;100.00
60015;BME280;45867;52.480;6.056;2022-10-16T10:39:10;101494.06;;;18.09;100.00
60015;BME280;45867;52.480;6.056;2022-10-16T10:44:35;101486.66;;;19.10;100.00
60015;BME280;45867;52.480;6.056;2022-10-16T10:52:53;101515.25;;;17.36;100.00
60015;BME280;45867;52.480;6.056;2022-10-16T10:55:28;101506.63;;;19.48;100.00
60015;BME280;45867;52.480;6.056;2022-10-16T11:01:10;101510.41;;;21.82;100.00
60015;BME280;45867;52.480;6.056;2022-10-16T11:06:26;101511.44;;;21.99;94.02
60015;BME280;45867;52.480;6.056;2022-10-16T11:11:59;101515.53;;;25.17;83.14
60015;BME280;45867;52.480;6.056;2022-10-16T11:14:33;101523.53;;;22.85;77.79
60015;BME280;45867;52.480;6.056;2022-10-16T11:17:13;101512.31;;;23.41;79.19
60015;BME280;45867;52.480;6.056;2022-10-16T11:19:44;101508.69;;;23.37;82.02
60015;BME280;45867;52.480;6.056;2022-10-16T11:22:18;101500.66;;;23.16;81.01
60015;BME280;45867;52.480;6.056;2022-10-16T11:27:50;101510.41;;;24.03;74.38
60015;BME280;45867;52.480;6.056;2022-10-16T11:30:23;101523.22;;;25.94;70.27
60015;BME280;45867;52.480;6.056;2022-10-16T11:35:44;101525.25;;;25.65;64.68
60015;BME280;45867;52.480;6.056;2022-10-16T11:38:21;101524.94;;;25.35;66.58
60015;BME280;45867;52.480;6.056;2022-10-16T11:40:52;101533.59;;;25.57;65.05
60015;BME280;45867;52.480;6.056;2022-10-16T11:43:25;101515.31;;;23.27;72.03
60015;BME280;45867;52.480;6.056;2022-10-16T11:45:55;101536.44;;;24.72;74.67
60015;BME280;45867;52.480;6.056;2022-10-16T11:51:06;101532.00;;;24.80;74.52
60015;BME280;45867;52.480;6.056;2022-10-16T11:53:46;101531.00;;;24.32;68.59
60015;BME280;45867;52.480;6.056;2022-10-16T11:56:20;101536.06;;;24.46;69.94
60015;BME280;45867;52.480;6.056;2022-10-16T11:58:59;101543.50;;;22.30;76.55
60015;BME280;45867;52.480;6.056;2022-10-16T12:01:31;101549.63;;;23.02;75.90
60015;BME280;45867;52.480;6.056;2022-10-16T12:06:50;101548.47;;;21.89;90.69
60015;BME280;45867;52.480;6.056;2022-10-16T12:09:30;101550.75;;;21.05;88.34
60015;BME280;45867;52.480;6.056;2022-10-16T12:11:56;101539.63;;;21.42;88.24
60015;BME280;45867;52.480;6.056;2022-10-16T12:16:59;101548.88;;;23.84;75.45
60015;BME280;45867;52.480;6.056;2022-10-16T12:19:27;101546.44;;;24.44;65.98
60015;BME280;45867;52.480;6.056;2022-10-16T12:21:56;101563.09;;;24.70;67.23
60015;BME280;45867;52.480;6.056;2022-10-16T12:26:56;101557.81;;;25.34;65.92
60015;BME280;45867;52.480;6.056;2022-10-16T12:31:57;101562.28;;;24.98;61.95
60015;BME280;45867;52.480;6.056;2022-10-16T12:34:27;101559.25;;;24.06;66.13
60015;BME280;45867;52.480;6.056;2022-10-16T12:36:54;101549.66;;;23.97;67.10
60015;BME280;45867;52.480;6.056;2022-10-16T12:39:23;101568.28;;;24.63;66.13
60015;BME280;45867;52.480;6.056;2022-10-16T12:42:00;101564.31;;;24.08;64.85
60015;BME280;45867;52.480;6.056;2022-10-16T12:44:32;101576.44;;;24.38;66.25
60015;BME280;45867;52.480;6.056;2022-10-16T12:46:57;101555.78;;;25.15;64.18
60015;BME280;45867;52.480;6.056;2022-10-16T12:49:36;101566.88;;;23.67;65.90
60015;BME280;45867;52.480;6.056;2022-10-16T12:52:03;101574.59;;;22.36;72.38
60015;BME280;45867;52.480;6.056;2022-10-16T12:54:36;101572.34;;;23.80;71.05
60015;BME280;45867;52.480;6.056;2022-10-16T12:57:28;101575.38;;;23.90;67.05
60015;BME280;45867;52.480;6.056;2022-10-16T13:00:21;101578.13;;;25.24;64.48
60015;BME280;45867;52.480;6.056;2022-10-16T13:17:03;101587.19;;;19.62;91.13
60015;BME280;45867;52.480;6.056;2022-10-16T13:20:25;101589.16;;;19.25;94.75
60015;BME280;45867;52.480;6.056;2022-10-16T13:22:35;101589.00;;;19.22;97.60
60015;BME280;45867;52.480;6.056;2022-10-16T13:27:59;101595.88;;;20.39;88.81
60015;BME280;45867;52.480;6.056;2022-10-16T13:30:27;101601.38;;;20.16;91.08
60015;BME280;45867;52.480;6.056;2022-10-16T13:33:01;101590.28;;;20.27;90.29
60015;BME280;45867;52.480;6.056;2022-10-16T13:35:30;101592.78;;;21.06;86.22
60015;BME280;45867;52.480;6.056;2022-10-16T13:38:11;101591.47;;;21.30;83.43
60015;BME280;45867;52.480;6.056;2022-10-16T13:40:52;101591.81;;;21.11;83.40
60015;BME280;45867;52.480;6.056;2022-10-16T13:43:19;101595.94;;;21.26;81.36
60015;BME280;45867;52.480;6.056;2022-10-16T13:45:57;101594.34;;;21.16;83.42
60015;BME280;45867;52.480;6.056;2022-10-16T13:48:23;101595.31;;;20.68;83.67
60015;BME280;45867;52.480;6.056;2022-10-16T13:51:06;101600.97;;;20.49;84.27
60015;BME280;45867;52.480;6.056;2022-10-16T13:53:34;101603.56;;;20.72;83.69
60015;BME280;45867;52.480;6.056;2022-10-16T13:56:01;101595.53;;;19.83;88.15
60015;BME280;45867;52.480;6.056;2022-10-16T13:58:27;101605.09;;;19.67;88.73
60015;BME280;45867;52.480;6.056;2022-10-16T14:03:23;101608.78;;;19.48;89.84
60015;BME280;45867;52.480;6.056;2022-10-16T14:05:58;101612.50;;;19.39;91.11
60015;BME280;45867;52.480;6.056;2022-10-16T14:08:25;101608.50;;;19.59;93.33
60015;BME280;45867;52.480;6.056;2022-10-16T14:10:57;101618.59;;;19.53;92.10
60015;BME280;45867;52.480;6.056;2022-10-16T14:13:46;101631.31;;;19.39;91.91
60015;BME280;45867;52.480;6.056;2022-10-16T14:16:18;101637.06;;;18.87;93.58